Dunlap, Iowa
Current Conditions -  °F | °C
As of 9:55 PM on Thursday 27 Nov 2014 (Local Time) from KDNS Reporting Station
Scattered Clouds Scattered Clouds  
Wind Chill: 11°   Ceiling: Unl
Heat Index: 18°   Visibility: 10mi
Dew Point: 10°   Wind: 5mph
Humidity: 73%   Direction: NA
Pressure: 30.2"   Gusts: NA
Location:  41.85°N, 95.6°W
Report Text: KDNS 280355Z AUTO VRB04KT 10SM FEW033 SCT041 SCT120 M08/M12 A3020 RMK AO2
Loading
Personal Weather Stations






























Interactive Weather Map New forecast layout! Learn more

10-Day Weather Forecast

Advertisements
Track Severe Weather on mobile